Time;durP1;ratioP1;P1;durP2;ratioP2;P2;SDS_P1;SDS_P2;PMS_P1;PMS_P2;Temp;Humidity;BMP_temperature;BMP_pressure;BME280_temperature;BME280_humidity;BME280_pressure;Samples;Min_cycle;Max_cycle;Signal;HPM_P1;HPM_P2
2024/01/31 00:01:35;;;;;;;70.47;23.35;;;;;;;;;;4928640;29;20032;-79
2024/01/31 00:04:02;;;;;;;81.25;23.52;;;;;;;;;;4932615;29;20050;-79
2024/01/31 00:06:29;;;;;;;67.85;22.98;;;;;;;;;;4931855;29;20032;-80
2024/01/31 00:08:56;;;;;;;91.53;23.20;;;;;;;;;;4926726;29;20040;-79
2024/01/31 00:11:28;;;;;;;111.25;24.92;;;;;;;;;;4923844;29;20042;-79
2024/01/31 00:13:56;;;;;;;83.65;24.25;;;;;;;;;;4928264;29;20047;-80
2024/01/31 00:16:22;;;;;;;66.88;23.73;;;;;;;;;;4936653;29;20142;-80
2024/01/31 00:18:51;;;;;;;87.85;25.35;;;;;;;;;;4933830;29;20043;-80
2024/01/31 00:21:17;;;;;;;77.53;24.30;;;;;;;;;;4930298;29;20104;-79
2024/01/31 00:23:43;;;;;;;82.35;25.25;;;;;;;;;;4932928;29;20039;-80
2024/01/31 00:26:09;;;;;;;80.93;25.80;;;;;;;;;;4941860;29;20042;-79
2024/01/31 00:28:35;;;;;;;74.70;26.25;;;;;;;;;;4932570;29;20068;-81
2024/01/31 00:31:01;;;;;;;68.53;24.65;;;;;;;;;;4939073;29;20059;-81
2024/01/31 00:33:27;;;;;;;79.95;24.80;;;;;;;;;;4937312;29;20115;-80
2024/01/31 00:35:53;;;;;;;66.03;20.92;;;;;;;;;;4931819;29;20036;-81
2024/01/31 00:38:19;;;;;;;101.13;25.35;;;;;;;;;;4941362;29;20035;-80
2024/01/31 00:40:45;;;;;;;77.10;23.67;;;;;;;;;;4931720;29;20380;-79
2024/01/31 00:43:11;;;;;;;125.32;30.60;;;;;;;;;;4934128;29;20047;-80
2024/01/31 00:45:36;;;;;;;333.60;32.80;;;;;;;;;;4915401;29;20039;-80
2024/01/31 00:48:02;;;;;;;364.17;33.92;;;;;;;;;;4929132;29;20092;-80
2024/01/31 00:50:28;;;;;;;167.18;27.25;;;;;;;;;;4938798;29;20032;-80
2024/01/31 00:52:54;;;;;;;576.33;38.92;;;;;;;;;;4936934;29;20082;-80
2024/01/31 00:55:20;;;;;;;427.65;34.38;;;;;;;;;;4941391;29;20482;-80
2024/01/31 00:57:46;;;;;;;506.75;37.50;;;;;;;;;;4916724;29;20039;-81
2024/01/31 01:00:12;;;;;;;396.58;33.28;;;;;;;;;;4939856;29;20036;-79
2024/01/31 01:02:41;;;;;;;679.95;42.70;;;;;;;;;;4930531;29;20054;-80
2024/01/31 01:05:08;;;;;;;451.80;31.77;;;;;;;;;;4933545;29;20031;-80
2024/01/31 01:07:34;;;;;;;421.05;33.25;;;;;;;;;;4929261;29;20044;-80
2024/01/31 01:10:00;;;;;;;185.52;18.98;;;;;;;;;;4940613;29;20055;-80
2024/01/31 01:12:26;;;;;;;174.68;22.10;;;;;;;;;;4932080;29;20035;-80
2024/01/31 01:14:52;;;;;;;382.52;27.33;;;;;;;;;;4918139;29;20075;-78
2024/01/31 01:17:18;;;;;;;244.15;24.45;;;;;;;;;;4914000;29;20530;-82
2024/01/31 01:19:43;;;;;;;173.27;22.10;;;;;;;;;;4937248;29;20055;-81
2024/01/31 01:22:09;;;;;;;291.73;24.27;;;;;;;;;;4913132;29;20058;-81
2024/01/31 01:24:35;;;;;;;629.88;37.33;;;;;;;;;;4941074;29;20086;-81
2024/01/31 01:27:01;;;;;;;154.70;19.85;;;;;;;;;;4930316;29;20113;-81
2024/01/31 01:29:27;;;;;;;175.55;20.92;;;;;;;;;;4932439;29;20118;-82
2024/01/31 01:31:53;;;;;;;108.35;16.95;;;;;;;;;;4937307;29;20024;-78
2024/01/31 01:34:19;;;;;;;213.77;20.30;;;;;;;;;;4926255;29;20039;-77
2024/01/31 01:36:45;;;;;;;194.10;22.85;;;;;;;;;;4924236;29;20122;-77
2024/01/31 01:39:11;;;;;;;138.38;21.20;;;;;;;;;;4924125;29;20038;-77
2024/01/31 01:41:37;;;;;;;582.22;33.42;;;;;;;;;;4907539;29;20274;-77
2024/01/31 01:44:03;;;;;;;223.52;22.80;;;;;;;;;;4925315;29;20052;-78
2024/01/31 01:46:28;;;;;;;155.15;21.00;;;;;;;;;;4925101;29;20059;-77
2024/01/31 01:48:54;;;;;;;239.40;23.15;;;;;;;;;;4933232;29;20483;-77
2024/01/31 01:51:21;;;;;;;140.45;23.00;;;;;;;;;;4940938;29;20042;-77
2024/01/31 01:53:47;;;;;;;225.23;21.33;;;;;;;;;;4927377;29;20044;-76
2024/01/31 01:56:13;;;;;;;117.90;19.02;;;;;;;;;;4928717;29;20058;-78
2024/01/31 01:58:39;;;;;;;157.05;21.90;;;;;;;;;;4930392;29;20441;-77
2024/01/31 02:01:05;;;;;;;119.47;20.60;;;;;;;;;;4908927;29;20524;-78
2024/01/31 02:03:31;;;;;;;152.30;22.50;;;;;;;;;;4929490;29;20047;-77
2024/01/31 02:05:57;;;;;;;86.45;19.65;;;;;;;;;;4915049;29;20063;-78
2024/01/31 02:08:24;;;;;;;69.18;16.48;;;;;;;;;;4917953;29;20038;-76
2024/01/31 02:10:49;;;;;;;61.00;18.13;;;;;;;;;;4924492;29;20410;-77
2024/01/31 02:13:15;;;;;;;64.57;17.90;;;;;;;;;;4924655;29;20063;-76
2024/01/31 02:15:54;;;;;;;53.33;16.50;;;;;;;;;;4925514;29;20052;-77
2024/01/31 02:18:39;;;;;;;95.38;19.48;;;;;;;;;;4925997;29;20054;-77
2024/01/31 02:21:05;;;;;;;69.45;18.92;;;;;;;;;;4928183;29;20031;-78
2024/01/31 02:23:31;;;;;;;73.70;18.33;;;;;;;;;;4940244;29;20058;-78
2024/01/31 02:25:57;;;;;;;71.85;19.85;;;;;;;;;;4934746;29;20031;-78
2024/01/31 02:28:24;;;;;;;71.88;21.63;;;;;;;;;;4928982;29;20154;-77
2024/01/31 02:30:50;;;;;;;67.60;20.00;;;;;;;;;;4926788;29;20499;-78
2024/01/31 02:33:17;;;;;;;69.07;20.98;;;;;;;;;;4928903;29;20130;-77
2024/01/31 02:35:43;;;;;;;127.35;20.13;;;;;;;;;;4912259;29;20031;-77
2024/01/31 02:38:08;;;;;;;57.42;13.95;;;;;;;;;;4929849;29;20036;-78
2024/01/31 02:40:34;;;;;;;64.78;19.00;;;;;;;;;;4929765;29;20339;-77
2024/01/31 02:43:00;;;;;;;85.93;20.95;;;;;;;;;;4926100;29;20048;-77
2024/01/31 02:45:27;;;;;;;61.70;17.55;;;;;;;;;;4908386;29;20031;-75
2024/01/31 02:47:53;;;;;;;49.85;15.45;;;;;;;;;;4923909;29;20040;-76
2024/01/31 02:50:19;;;;;;;84.72;20.80;;;;;;;;;;4926836;29;20082;-77
2024/01/31 02:52:45;;;;;;;59.13;18.67;;;;;;;;;;4911403;29;20039;-76
2024/01/31 02:55:11;;;;;;;66.57;17.83;;;;;;;;;;4929259;29;20495;-77
2024/01/31 02:57:38;;;;;;;69.93;19.15;;;;;;;;;;4937516;29;20028;-76
2024/01/31 03:00:04;;;;;;;41.30;13.20;;;;;;;;;;4924261;29;20059;-76
2024/01/31 03:02:32;;;;;;;27.30;11.75;;;;;;;;;;4932434;29;20043;-77
2024/01/31 03:04:58;;;;;;;60.10;19.13;;;;;;;;;;4929247;29;20046;-77
2024/01/31 03:07:24;;;;;;;30.63;13.07;;;;;;;;;;4921972;29;20115;-77
2024/01/31 03:09:50;;;;;;;54.25;18.80;;;;;;;;;;4925474;29;20034;-77
2024/01/31 03:12:16;;;;;;;62.58;18.58;;;;;;;;;;4922930;29;20044;-75
2024/01/31 03:14:42;;;;;;;67.32;19.55;;;;;;;;;;4930490;29;20119;-76
2024/01/31 03:17:08;;;;;;;63.80;16.98;;;;;;;;;;4928584;29;20066;-75
2024/01/31 03:19:35;;;;;;;60.50;18.70;;;;;;;;;;4925228;29;20031;-75
2024/01/31 03:22:01;;;;;;;43.85;17.05;;;;;;;;;;4926891;29;20062;-78
2024/01/31 03:24:30;;;;;;;79.65;20.20;;;;;;;;;;4929065;29;20043;-77
2024/01/31 03:26:59;;;;;;;43.35;13.70;;;;;;;;;;4925876;29;20039;-77
2024/01/31 03:29:25;;;;;;;63.63;17.85;;;;;;;;;;4926897;29;20486;-77
2024/01/31 03:31:51;;;;;;;56.30;18.42;;;;;;;;;;4928248;29;20040;-77
2024/01/31 03:34:17;;;;;;;57.92;18.13;;;;;;;;;;4930825;29;20039;-75
2024/01/31 03:36:43;;;;;;;88.90;21.60;;;;;;;;;;4909489;29;20051;-76
2024/01/31 03:39:09;;;;;;;67.40;19.40;;;;;;;;;;4923050;29;20059;-75
2024/01/31 03:41:35;;;;;;;63.75;19.75;;;;;;;;;;4924758;29;20040;-76
2024/01/31 03:44:01;;;;;;;63.25;18.08;;;;;;;;;;4921868;29;20525;-76
2024/01/31 03:46:27;;;;;;;57.25;16.35;;;;;;;;;;4926758;29;20023;-76
2024/01/31 03:48:53;;;;;;;31.13;13.00;;;;;;;;;;4940689;29;20059;-75
2024/01/31 03:51:19;;;;;;;62.70;15.23;;;;;;;;;;4927050;29;20473;-76
2024/01/31 03:53:48;;;;;;;68.10;17.67;;;;;;;;;;4930457;29;20038;-75
2024/01/31 03:56:15;;;;;;;73.30;17.77;;;;;;;;;;4906885;29;20051;-75
2024/01/31 03:58:47;;;;;;;76.05;17.73;;;;;;;;;;4921242;29;20067;-76
2024/01/31 04:01:16;;;;;;;44.33;13.02;;;;;;;;;;4910170;29;20043;-76
2024/01/31 04:03:43;;;;;;;83.75;20.02;;;;;;;;;;4922667;29;20498;-75
2024/01/31 04:06:08;;;;;;;49.65;13.18;;;;;;;;;;4932615;29;20379;-76
2024/01/31 04:08:34;;;;;;;99.97;20.88;;;;;;;;;;4921442;29;20047;-76
2024/01/31 04:11:03;;;;;;;105.15;21.75;;;;;;;;;;4939565;29;20456;-76
2024/01/31 04:13:29;;;;;;;81.03;19.90;;;;;;;;;;4937450;29;20040;-76
2024/01/31 04:15:55;;;;;;;51.05;13.85;;;;;;;;;;4932219;29;20047;-76
2024/01/31 04:18:21;;;;;;;119.25;22.50;;;;;;;;;;4926282;29;20042;-77
2024/01/31 04:20:47;;;;;;;95.55;18.98;;;;;;;;;;4925529;29;20027;-77
2024/01/31 04:23:14;;;;;;;150.27;22.38;;;;;;;;;;4907034;29;20051;-76
2024/01/31 04:25:40;;;;;;;164.07;21.52;;;;;;;;;;4924835;29;20407;-77
2024/01/31 04:28:06;;;;;;;158.23;24.13;;;;;;;;;;4921620;29;20047;-78
2024/01/31 04:30:32;;;;;;;157.30;22.23;;;;;;;;;;4931244;29;20054;-77
2024/01/31 04:33:01;;;;;;;79.05;16.65;;;;;;;;;;4895999;29;20031;-77
2024/01/31 04:35:27;;;;;;;143.68;18.70;;;;;;;;;;4928873;29;20051;-78
2024/01/31 04:37:53;;;;;;;99.82;21.00;;;;;;;;;;4928005;29;20036;-77
2024/01/31 04:40:19;;;;;;;134.98;22.10;;;;;;;;;;4936523;29;20043;-78
2024/01/31 04:42:47;;;;;;;85.78;19.08;;;;;;;;;;4934338;29;20059;-79
2024/01/31 04:45:15;;;;;;;281.58;27.67;;;;;;;;;;4934443;29;20024;-77
2024/01/31 04:47:41;;;;;;;111.75;23.25;;;;;;;;;;4899982;29;20031;-78
2024/01/31 04:50:08;;;;;;;86.68;19.90;;;;;;;;;;4935357;29;20060;-78
2024/01/31 04:52:34;;;;;;;121.18;25.48;;;;;;;;;;4934926;29;20035;-77
2024/01/31 04:54:59;;;;;;;86.40;18.60;;;;;;;;;;4926416;29;20076;-79
2024/01/31 04:57:26;;;;;;;102.47;19.75;;;;;;;;;;4930780;29;20043;-78
2024/01/31 04:59:52;;;;;;;136.57;23.50;;;;;;;;;;4926359;29;20092;-78
2024/01/31 05:02:20;;;;;;;124.95;21.13;;;;;;;;;;4924911;29;20186;-76
2024/01/31 05:04:47;;;;;;;124.53;23.58;;;;;;;;;;4922318;29;20183;-77
2024/01/31 05:07:13;;;;;;;97.25;22.13;;;;;;;;;;4923940;29;20081;-76
2024/01/31 05:09:39;;;;;;;169.82;23.67;;;;;;;;;;4921906;29;20040;-77
2024/01/31 05:12:05;;;;;;;175.45;23.55;;;;;;;;;;4892473;29;20034;-76
2024/01/31 05:14:30;;;;;;;164.77;27.30;;;;;;;;;;4923626;29;20055;-76
2024/01/31 05:17:01;;;;;;;155.93;24.98;;;;;;;;;;4923937;29;20174;-76
2024/01/31 05:19:27;;;;;;;130.55;21.35;;;;;;;;;;4927142;29;20095;-76
2024/01/31 05:24:39;;;;;;;155.88;26.33;;;;;;;;;;4922918;29;20048;-79
2024/01/31 05:27:05;;;;;;;180.00;25.65;;;;;;;;;;4913914;29;20038;-78
2024/01/31 05:29:31;;;;;;;166.23;26.17;;;;;;;;;;4909664;29;20036;-78
2024/01/31 05:31:57;;;;;;;121.35;24.48;;;;;;;;;;4928280;29;20254;-79
2024/01/31 05:34:22;;;;;;;66.03;14.82;;;;;;;;;;4916395;29;20609;-75
2024/01/31 05:36:48;;;;;;;85.90;16.95;;;;;;;;;;4927211;29;20047;-74
2024/01/31 05:39:14;;;;;;;84.75;19.33;;;;;;;;;;4940799;29;20040;-74
2024/01/31 05:41:42;;;;;;;73.50;19.35;;;;;;;;;;4937813;29;20054;-75
2024/01/31 05:44:08;;;;;;;123.45;27.08;;;;;;;;;;4921145;29;20083;-74
2024/01/31 05:46:37;;;;;;;57.38;15.05;;;;;;;;;;4923586;29;20103;-75
2024/01/31 05:49:02;;;;;;;84.57;21.13;;;;;;;;;;4924831;29;20510;-75
2024/01/31 05:51:28;;;;;;;83.20;19.85;;;;;;;;;;4925653;29;20059;-75
2024/01/31 05:53:54;;;;;;;74.72;19.05;;;;;;;;;;4922618;29;20036;-75
2024/01/31 05:56:20;;;;;;;81.18;20.95;;;;;;;;;;4925390;29;20189;-77
2024/01/31 05:58:46;;;;;;;76.95;19.33;;;;;;;;;;4929191;29;20048;-78
2024/01/31 06:01:12;;;;;;;60.90;18.02;;;;;;;;;;4932961;29;20510;-76
2024/01/31 06:03:38;;;;;;;90.57;22.27;;;;;;;;;;4901790;29;20104;-79
2024/01/31 06:06:04;;;;;;;86.57;23.30;;;;;;;;;;4936153;28;20035;-79
2024/01/31 06:08:30;;;;;;;95.47;25.05;;;;;;;;;;4925916;29;20408;-74
2024/01/31 06:11:03;;;;;;;89.32;23.98;;;;;;;;;;4930493;29;20095;-77
2024/01/31 06:13:29;;;;;;;90.30;23.20;;;;;;;;;;4934244;29;20036;-77
2024/01/31 06:15:55;;;;;;;96.10;24.55;;;;;;;;;;4933120;29;20108;-78
2024/01/31 06:18:22;;;;;;;72.90;19.05;;;;;;;;;;4934283;29;20446;-77
2024/01/31 06:20:51;;;;;;;116.95;27.40;;;;;;;;;;4933989;29;20055;-79
2024/01/31 06:23:16;;;;;;;102.03;26.70;;;;;;;;;;4930025;29;20126;-78
2024/01/31 06:25:42;;;;;;;94.63;25.92;;;;;;;;;;4929497;29;20103;-75
2024/01/31 06:28:08;;;;;;;80.20;21.75;;;;;;;;;;4911670;29;20143;-75
2024/01/31 06:30:41;;;;;;;85.68;21.10;;;;;;;;;;4927740;29;20040;-77
2024/01/31 06:33:07;;;;;;;95.55;24.98;;;;;;;;;;4930270;29;20625;-78
2024/01/31 06:35:33;;;;;;;62.40;19.60;;;;;;;;;;4924724;29;20415;-78
2024/01/31 06:37:59;;;;;;;92.10;23.88;;;;;;;;;;4906648;29;20043;-77
2024/01/31 06:40:26;;;;;;;67.40;19.85;;;;;;;;;;4932934;29;20023;-78
2024/01/31 06:42:52;;;;;;;95.82;23.42;;;;;;;;;;4911550;29;20040;-78
2024/01/31 06:45:17;;;;;;;75.72;20.63;;;;;;;;;;4925426;29;20041;-75
2024/01/31 06:47:43;;;;;;;79.80;21.38;;;;;;;;;;4933282;29;20028;-76
2024/01/31 06:50:09;;;;;;;65.10;19.17;;;;;;;;;;4927038;28;20034;-75
2024/01/31 06:52:35;;;;;;;76.43;20.60;;;;;;;;;;4934683;29;20043;-72
2024/01/31 06:55:04;;;;;;;75.30;19.50;;;;;;;;;;4932006;29;20446;-73
2024/01/31 06:57:32;;;;;;;44.80;16.33;;;;;;;;;;4929637;29;20044;-73
2024/01/31 06:59:58;;;;;;;68.22;18.88;;;;;;;;;;4933181;29;20032;-73
2024/01/31 07:02:23;;;;;;;83.30;20.63;;;;;;;;;;4916148;29;20059;-73
2024/01/31 07:04:52;;;;;;;100.10;23.90;;;;;;;;;;4929516;29;20126;-73
2024/01/31 07:07:17;;;;;;;66.45;15.68;;;;;;;;;;4932358;29;20115;-73
2024/01/31 07:09:43;;;;;;;53.17;18.13;;;;;;;;;;4930380;29;20040;-71
2024/01/31 07:12:12;;;;;;;43.83;15.95;;;;;;;;;;4925463;29;20090;-71
2024/01/31 07:14:40;;;;;;;59.08;20.98;;;;;;;;;;4924772;29;20226;-72
2024/01/31 07:19:50;;;;;;;26.45;11.77;;;;;;;;;;4930866;29;20036;-72
2024/01/31 07:22:16;;;;;;;40.50;16.17;;;;;;;;;;4912448;29;20078;-72
2024/01/31 07:24:43;;;;;;;40.30;15.30;;;;;;;;;;4927180;29;20043;-73
2024/01/31 07:27:09;;;;;;;28.73;13.25;;;;;;;;;;4931476;29;20048;-72
2024/01/31 07:29:35;;;;;;;35.40;17.13;;;;;;;;;;4931601;29;20425;-72
2024/01/31 07:32:00;;;;;;;23.38;13.52;;;;;;;;;;4924370;29;20039;-73
2024/01/31 07:34:26;;;;;;;32.22;13.23;;;;;;;;;;4943966;29;20039;-73
2024/01/31 07:36:52;;;;;;;26.67;13.90;;;;;;;;;;4933081;29;20043;-72
2024/01/31 07:39:18;;;;;;;26.92;11.52;;;;;;;;;;4925251;29;20557;-71
2024/01/31 07:41:44;;;;;;;19.35;12.70;;;;;;;;;;4928622;29;20032;-71
2024/01/31 07:44:11;;;;;;;24.08;13.20;;;;;;;;;;4922524;29;20091;-71
2024/01/31 07:46:36;;;;;;;25.15;13.55;;;;;;;;;;4920787;29;20123;-71
2024/01/31 07:49:06;;;;;;;30.25;15.13;;;;;;;;;;4928415;29;20491;-70
2024/01/31 07:51:32;;;;;;;20.38;11.52;;;;;;;;;;4927158;29;20043;-72
2024/01/31 07:53:58;;;;;;;23.65;12.90;;;;;;;;;;4917486;29;20043;-71
2024/01/31 07:56:24;;;;;;;20.27;12.07;;;;;;;;;;4925538;29;20399;-71
2024/01/31 07:58:50;;;;;;;20.05;10.90;;;;;;;;;;4925451;29;20126;-72
2024/01/31 08:01:16;;;;;;;28.85;14.35;;;;;;;;;;4903177;29;20036;-71
2024/01/31 08:03:42;;;;;;;19.88;11.40;;;;;;;;;;4929305;29;20056;-71
2024/01/31 08:06:08;;;;;;;12.90;9.35;;;;;;;;;;4924640;29;20039;-72
2024/01/31 08:08:36;;;;;;;23.58;13.48;;;;;;;;;;4924689;29;20142;-71
2024/01/31 08:11:02;;;;;;;21.45;10.73;;;;;;;;;;4927594;29;20023;-71
2024/01/31 08:13:28;;;;;;;28.52;14.90;;;;;;;;;;4925197;29;20130;-72
2024/01/31 08:15:54;;;;;;;28.55;16.80;;;;;;;;;;4919701;29;20055;-71
2024/01/31 08:18:20;;;;;;;23.33;12.75;;;;;;;;;;4925003;29;20035;-71
2024/01/31 08:20:46;;;;;;;20.05;12.23;;;;;;;;;;4920638;29;20511;-71
2024/01/31 08:23:12;;;;;;;25.30;14.35;;;;;;;;;;4928362;29;20102;-70
2024/01/31 08:25:38;;;;;;;24.67;12.75;;;;;;;;;;4923323;29;20040;-71
2024/01/31 08:28:04;;;;;;;25.38;14.05;;;;;;;;;;4929668;29;20072;-73
2024/01/31 08:30:29;;;;;;;28.95;15.77;;;;;;;;;;4924675;29;20581;-71
2024/01/31 08:32:55;;;;;;;21.85;13.65;;;;;;;;;;4924472;29;20065;-71
2024/01/31 08:35:21;;;;;;;15.35;10.50;;;;;;;;;;4928175;29;20091;-71
2024/01/31 08:37:48;;;;;;;14.48;10.80;;;;;;;;;;4924766;29;20040;-71
2024/01/31 08:40:14;;;;;;;17.15;11.10;;;;;;;;;;4927053;29;20036;-71
2024/01/31 08:42:40;;;;;;;16.70;11.77;;;;;;;;;;4929159;29;20107;-68
2024/01/31 08:45:07;;;;;;;22.23;14.27;;;;;;;;;;4927858;29;20020;-69
2024/01/31 08:47:33;;;;;;;17.08;10.88;;;;;;;;;;4927731;29;20047;-69
2024/01/31 08:49:59;;;;;;;13.00;10.27;;;;;;;;;;4926923;29;20043;-68
2024/01/31 08:52:24;;;;;;;11.32;9.07;;;;;;;;;;4922273;29;20593;-70
2024/01/31 08:54:50;;;;;;;8.63;7.30;;;;;;;;;;4923343;29;20031;-71
2024/01/31 08:57:16;;;;;;;11.02;9.93;;;;;;;;;;4925220;29;20063;-70
2024/01/31 08:59:42;;;;;;;10.40;9.40;;;;;;;;;;4929472;29;20040;-69
2024/01/31 09:02:09;;;;;;;8.73;7.93;;;;;;;;;;4925913;29;20566;-69
2024/01/31 09:04:35;;;;;;;7.97;7.28;;;;;;;;;;4922407;29;20051;-70
2024/01/31 09:07:01;;;;;;;7.63;6.88;;;;;;;;;;4927312;29;20088;-69
2024/01/31 09:09:27;;;;;;;11.48;9.75;;;;;;;;;;4921524;29;20046;-69
2024/01/31 09:11:54;;;;;;;13.88;7.93;;;;;;;;;;4922098;29;20639;-70
2024/01/31 09:14:19;;;;;;;8.73;7.82;;;;;;;;;;4929780;28;20039;-69
2024/01/31 09:16:45;;;;;;;10.75;9.23;;;;;;;;;;4924169;29;20055;-70
2024/01/31 09:19:11;;;;;;;12.50;9.75;;;;;;;;;;4916523;29;20043;-69
2024/01/31 09:21:37;;;;;;;11.32;9.20;;;;;;;;;;4926682;29;20039;-69
2024/01/31 09:24:03;;;;;;;9.57;8.73;;;;;;;;;;4922826;29;20083;-70
2024/01/31 09:26:29;;;;;;;10.15;9.23;;;;;;;;;;4922076;29;20028;-70
2024/01/31 09:28:55;;;;;;;9.98;7.65;;;;;;;;;;4926479;29;21841;-70
2024/01/31 09:31:23;;;;;;;12.18;10.98;;;;;;;;;;4922684;29;20477;-70
2024/01/31 09:33:49;;;;;;;9.70;8.77;;;;;;;;;;4927148;29;20047;-70
2024/01/31 09:36:16;;;;;;;8.82;7.93;;;;;;;;;;4923556;29;20034;-69
2024/01/31 09:38:42;;;;;;;10.70;9.63;;;;;;;;;;4917122;29;20951;-69
2024/01/31 09:41:07;;;;;;;10.82;9.38;;;;;;;;;;4926085;29;20031;-69
2024/01/31 09:43:33;;;;;;;10.38;9.40;;;;;;;;;;4906031;29;20048;-70
2024/01/31 09:45:59;;;;;;;11.20;10.02;;;;;;;;;;4906634;29;20024;-68
2024/01/31 09:48:25;;;;;;;12.02;8.35;;;;;;;;;;4921051;29;20048;-70
2024/01/31 09:50:51;;;;;;;11.80;10.80;;;;;;;;;;4921432;29;20031;-70
2024/01/31 09:53:17;;;;;;;11.50;10.40;;;;;;;;;;4913272;29;20525;-69
2024/01/31 09:55:43;;;;;;;12.43;11.13;;;;;;;;;;4923384;29;20040;-70
2024/01/31 09:58:09;;;;;;;12.73;9.70;;;;;;;;;;4922075;29;20201;-69
2024/01/31 10:00:35;;;;;;;10.45;9.25;;;;;;;;;;4913603;29;20534;-68
2024/01/31 10:03:01;;;;;;;9.82;8.88;;;;;;;;;;4923755;29;20054;-70
2024/01/31 10:05:27;;;;;;;6.57;5.97;;;;;;;;;;4920874;29;20031;-69
2024/01/31 10:08:02;;;;;;;9.77;8.77;;;;;;;;;;4909027;29;20038;-70
2024/01/31 10:10:29;;;;;;;7.72;7.03;;;;;;;;;;4928844;29;20046;-69
2024/01/31 10:12:55;;;;;;;11.93;9.40;;;;;;;;;;4926251;29;20047;-69
2024/01/31 10:15:40;;;;;;;12.65;11.48;;;;;;;;;;4920159;29;20056;-70
2024/01/31 10:18:06;;;;;;;10.32;9.23;;;;;;;;;;4922660;29;20038;-69
2024/01/31 10:20:32;;;;;;;11.02;9.88;;;;;;;;;;4925819;29;20035;-69
2024/01/31 10:22:58;;;;;;;10.32;9.25;;;;;;;;;;4922934;29;20043;-69
2024/01/31 10:25:25;;;;;;;11.23;10.07;;;;;;;;;;4937230;29;20028;-70
2024/01/31 10:27:52;;;;;;;15.15;11.95;;;;;;;;;;4940079;29;20130;-70
2024/01/31 10:30:18;;;;;;;10.70;9.52;;;;;;;;;;4925296;29;20135;-69
2024/01/31 10:32:44;;;;;;;12.75;9.43;;;;;;;;;;4925770;29;20059;-70
2024/01/31 10:35:10;;;;;;;9.27;8.38;;;;;;;;;;4921456;29;20046;-70
2024/01/31 10:37:37;;;;;;;6.95;6.28;;;;;;;;;;4921060;29;20047;-70
2024/01/31 10:40:04;;;;;;;8.02;6.97;;;;;;;;;;4922493;29;20052;-70
2024/01/31 10:42:30;;;;;;;10.80;9.75;;;;;;;;;;4923520;29;20052;-70
2024/01/31 10:44:56;;;;;;;11.68;10.35;;;;;;;;;;4926980;29;20043;-69
2024/01/31 10:47:22;;;;;;;11.30;10.15;;;;;;;;;;4922734;29;20537;-70
2024/01/31 10:49:47;;;;;;;10.45;9.35;;;;;;;;;;4914976;29;20040;-70
2024/01/31 10:52:14;;;;;;;12.63;11.38;;;;;;;;;;4915150;29;20095;-71
2024/01/31 10:54:41;;;;;;;13.10;11.93;;;;;;;;;;4913393;29;20051;-70
2024/01/31 10:57:07;;;;;;;12.15;10.13;;;;;;;;;;4914966;29;20171;-70
2024/01/31 10:59:36;;;;;;;15.80;14.20;;;;;;;;;;4916605;29;20122;-70
2024/01/31 11:02:02;;;;;;;12.70;10.70;;;;;;;;;;4932306;29;20084;-69
2024/01/31 11:04:28;;;;;;;11.93;10.77;;;;;;;;;;4933585;29;20071;-70
2024/01/31 11:06:55;;;;;;;15.25;12.15;;;;;;;;;;4932416;29;20060;-69
2024/01/31 11:09:24;;;;;;;12.88;10.95;;;;;;;;;;4932753;29;20032;-69
2024/01/31 11:12:06;;;;;;;10.98;9.60;;;;;;;;;;4932459;29;20047;-70
2024/01/31 11:14:32;;;;;;;10.23;9.07;;;;;;;;;;4932282;29;20040;-70
2024/01/31 11:17:04;;;;;;;13.93;12.48;;;;;;;;;;4932068;29;20052;-70
2024/01/31 11:19:30;;;;;;;15.27;12.65;;;;;;;;;;4933888;29;20498;-70
2024/01/31 11:21:57;;;;;;;11.60;10.07;;;;;;;;;;4933658;29;20062;-70
2024/01/31 11:24:25;;;;;;;15.48;12.65;;;;;;;;;;4932517;29;20086;-70
2024/01/31 11:26:51;;;;;;;13.85;12.52;;;;;;;;;;4932736;29;20059;-70
2024/01/31 11:29:17;;;;;;;7.88;6.78;;;;;;;;;;4932520;29;20044;-70
2024/01/31 11:31:43;;;;;;;10.63;9.57;;;;;;;;;;4932182;29;20495;-69
2024/01/31 11:34:09;;;;;;;7.75;6.80;;;;;;;;;;4916557;29;20040;-70
2024/01/31 11:36:35;;;;;;;12.70;10.02;;;;;;;;;;4933412;29;20158;-68
2024/01/31 11:39:05;;;;;;;14.85;13.43;;;;;;;;;;4932039;29;20431;-70
2024/01/31 11:41:31;;;;;;;16.17;10.25;;;;;;;;;;4932415;29;20055;-70
2024/01/31 11:43:56;;;;;;;12.93;11.70;;;;;;;;;;4915550;29;20481;-69
2024/01/31 11:46:22;;;;;;;10.70;9.23;;;;;;;;;;4932986;29;20070;-69
2024/01/31 11:48:48;;;;;;;15.82;13.73;;;;;;;;;;4931636;29;20066;-69
2024/01/31 11:51:14;;;;;;;11.02;9.88;;;;;;;;;;4916112;29;20609;-70
2024/01/31 11:53:40;;;;;;;12.50;10.90;;;;;;;;;;4931522;29;20091;-69
2024/01/31 11:56:06;;;;;;;11.15;9.25;;;;;;;;;;4931539;29;20040;-70
2024/01/31 11:58:32;;;;;;;10.95;9.95;;;;;;;;;;4932628;29;20038;-70
2024/01/31 12:00:58;;;;;;;14.80;13.40;;;;;;;;;;4932470;29;20112;-70
2024/01/31 12:03:24;;;;;;;18.05;14.30;;;;;;;;;;4931878;29;20051;-68
2024/01/31 12:05:57;;;;;;;10.98;9.82;;;;;;;;;;4932691;29;20127;-69
2024/01/31 12:08:28;;;;;;;13.38;11.15;;;;;;;;;;4932926;29;20044;-69
2024/01/31 12:10:54;;;;;;;10.80;9.23;;;;;;;;;;4915872;29;20087;-70
2024/01/31 12:13:21;;;;;;;12.05;10.55;;;;;;;;;;4915256;29;20043;-70
2024/01/31 12:15:47;;;;;;;14.05;9.88;;;;;;;;;;4915181;29;20526;-69
2024/01/31 12:18:14;;;;;;;17.02;12.77;;;;;;;;;;4932568;29;20044;-69
2024/01/31 12:20:40;;;;;;;13.60;11.50;;;;;;;;;;4915167;29;20050;-70
2024/01/31 12:23:06;;;;;;;17.05;9.65;;;;;;;;;;4931955;29;20047;-70
2024/01/31 12:25:32;;;;;;;13.63;10.38;;;;;;;;;;4932325;29;20032;-70
2024/01/31 12:28:00;;;;;;;11.93;10.68;;;;;;;;;;4914824;29;20126;-69
2024/01/31 12:30:26;;;;;;;12.82;11.52;;;;;;;;;;4932185;29;20027;-69
2024/01/31 12:32:51;;;;;;;13.35;11.95;;;;;;;;;;4931910;29;20498;-70
2024/01/31 12:35:18;;;;;;;18.20;13.85;;;;;;;;;;4931975;29;20098;-69
2024/01/31 12:37:45;;;;;;;10.07;9.02;;;;;;;;;;4932235;29;20047;-70
2024/01/31 12:40:11;;;;;;;10.43;9.45;;;;;;;;;;4930658;29;20031;-70
2024/01/31 12:42:37;;;;;;;11.38;10.23;;;;;;;;;;4930743;29;20586;-69
2024/01/31 12:45:03;;;;;;;15.65;14.05;;;;;;;;;;4931945;29;20122;-69
2024/01/31 12:47:30;;;;;;;16.35;14.20;;;;;;;;;;4931549;29;20518;-69
2024/01/31 12:49:56;;;;;;;10.65;9.55;;;;;;;;;;4931121;29;20086;-69
2024/01/31 12:52:24;;;;;;;11.50;9.27;;;;;;;;;;4914591;29;20652;-70
2024/01/31 12:54:53;;;;;;;10.38;9.40;;;;;;;;;;4915436;29;20043;-69
2024/01/31 12:57:22;;;;;;;8.43;7.65;;;;;;;;;;4931923;29;20039;-70
2024/01/31 12:59:47;;;;;;;12.40;11.27;;;;;;;;;;4895922;29;20644;-69
2024/01/31 13:02:14;;;;;;;6.95;6.35;;;;;;;;;;4914300;29;20040;-69
2024/01/31 13:04:43;;;;;;;10.07;7.78;;;;;;;;;;4911686;29;20087;-70
2024/01/31 13:07:09;;;;;;;8.27;6.07;;;;;;;;;;4911622;29;20103;-69
2024/01/31 13:09:35;;;;;;;12.95;8.48;;;;;;;;;;4912794;29;20080;-68
2024/01/31 13:12:01;;;;;;;11.35;10.32;;;;;;;;;;4897233;29;20499;-70
2024/01/31 13:14:27;;;;;;;10.98;9.85;;;;;;;;;;4914033;29;20044;-70
2024/01/31 13:16:52;;;;;;;9.80;8.93;;;;;;;;;;4921204;29;20192;-70
2024/01/31 13:19:20;;;;;;;10.95;9.85;;;;;;;;;;4928176;29;20130;-69
2024/01/31 13:21:49;;;;;;;7.63;7.03;;;;;;;;;;4913944;29;20145;-69
2024/01/31 13:24:16;;;;;;;9.23;7.78;;;;;;;;;;4927364;29;20139;-70
2024/01/31 13:26:42;;;;;;;9.57;8.32;;;;;;;;;;4912867;29;20064;-69
2024/01/31 13:29:08;;;;;;;9.82;8.82;;;;;;;;;;4911416;29;20098;-70
2024/01/31 13:31:34;;;;;;;13.52;10.80;;;;;;;;;;4912938;29;20066;-70
2024/01/31 13:34:00;;;;;;;16.15;14.50;;;;;;;;;;4926576;29;20132;-70
2024/01/31 13:36:27;;;;;;;14.13;10.93;;;;;;;;;;4912483;29;20123;-69
2024/01/31 13:38:54;;;;;;;10.90;9.90;;;;;;;;;;4926880;29;20047;-70
2024/01/31 13:41:22;;;;;;;17.48;13.50;;;;;;;;;;4911747;29;20119;-70
2024/01/31 13:43:49;;;;;;;13.23;11.02;;;;;;;;;;4911274;29;20079;-69
2024/01/31 13:46:15;;;;;;;11.93;10.02;;;;;;;;;;4911061;29;20547;-69
2024/01/31 13:48:41;;;;;;;14.63;11.38;;;;;;;;;;4911253;29;20075;-70
2024/01/31 13:51:08;;;;;;;7.30;6.60;;;;;;;;;;4926818;29;20201;-70
2024/01/31 13:53:37;;;;;;;15.52;10.02;;;;;;;;;;4912457;29;20059;-70
2024/01/31 13:56:03;;;;;;;14.13;12.63;;;;;;;;;;4912232;29;20040;-69
2024/01/31 13:58:28;;;;;;;13.10;11.80;;;;;;;;;;4912459;29;20760;-70
2024/01/31 14:00:54;;;;;;;17.88;9.05;;;;;;;;;;4925628;29;20059;-70
2024/01/31 14:03:20;;;;;;;13.80;10.27;;;;;;;;;;4929772;29;20058;-70
2024/01/31 14:05:46;;;;;;;15.70;11.68;;;;;;;;;;4931231;29;20035;-69
2024/01/31 14:08:12;;;;;;;12.43;10.70;;;;;;;;;;4930843;29;20055;-71
2024/01/31 14:10:37;;;;;;;17.00;12.32;;;;;;;;;;4932226;29;20031;-68
2024/01/31 14:13:03;;;;;;;12.68;8.93;;;;;;;;;;4929772;29;20097;-69
2024/01/31 14:15:29;;;;;;;10.65;9.55;;;;;;;;;;4931541;28;20082;-69
2024/01/31 14:17:55;;;;;;;14.43;10.10;;;;;;;;;;4915702;29;20494;-70
2024/01/31 14:20:21;;;;;;;10.40;8.80;;;;;;;;;;4933481;29;20451;-70